Time;durP1;ratioP1;P1;durP2;ratioP2;P2;SDS_P1;SDS_P2;PMS_P1;PMS_P2;Temp;Humidity;BMP_temperature;BMP_pressure;BME280_temperature;BME280_humidity;BME280_pressure;Samples;Min_cycle;Max_cycle;Signal;HPM_P1;HPM_P2
2022/04/25 00:01:21;;;;;;;12.07;6.78;;;9.00;99.90;;;;;;5093659;28;20048;-69
2022/04/25 00:03:48;;;;;;;10.18;7.70;;;9.00;99.90;;;;;;5093484;28;20050;-69
2022/04/25 00:06:14;;;;;;;11.82;7.13;;;8.70;99.90;;;;;;5093642;28;20052;-69
2022/04/25 00:08:40;;;;;;;10.98;7.72;;;9.00;99.90;;;;;;5093580;28;20036;-69
2022/04/25 00:11:06;;;;;;;10.05;7.20;;;9.50;99.90;;;;;;5094144;28;20130;-69
2022/04/25 00:13:32;;;;;;;11.90;7.45;;;8.90;99.90;;;;;;5075737;28;20123;-69
2022/04/25 00:15:57;;;;;;;12.18;7.32;;;8.90;99.90;;;;;;5093980;28;20097;-69
2022/04/25 00:18:23;;;;;;;13.68;7.05;;;8.90;99.90;;;;;;5096116;28;20048;-69
2022/04/25 00:20:49;;;;;;;10.45;6.55;;;9.00;99.90;;;;;;5097600;28;20408;-69
2022/04/25 00:23:15;;;;;;;12.57;7.32;;;8.90;99.90;;;;;;5097596;28;20040;-69
2022/04/25 00:25:41;;;;;;;13.82;6.80;;;9.10;99.90;;;;;;5097854;28;20048;-69
2022/04/25 00:28:10;;;;;;;10.98;7.47;;;8.80;99.90;;;;;;5079584;28;20181;-69
2022/04/25 00:30:35;;;;;;;12.57;6.93;;;8.90;99.90;;;;;;5097703;28;20043;-69
2022/04/25 00:33:01;;;;;;;14.20;7.63;;;8.90;99.90;;;;;;5097033;28;20380;-69
2022/04/25 00:35:28;;;;;;;13.18;7.38;;;8.80;99.90;;;;;;5097173;28;20035;-69
2022/04/25 00:37:54;;;;;;;10.20;6.55;;;9.20;99.90;;;;;;5097797;28;20134;-69
2022/04/25 00:40:22;;;;;;;11.43;7.45;;;8.90;99.90;;;;;;5097508;28;20048;-69
2022/04/25 00:42:49;;;;;;;8.77;6.85;;;8.80;99.90;;;;;;5079299;28;20097;-70
2022/04/25 00:45:15;;;;;;;11.95;6.78;;;9.00;99.90;;;;;;5097150;28;20507;-69
2022/04/25 00:47:42;;;;;;;9.88;6.70;;;8.70;99.90;;;;;;5097141;28;20126;-69
2022/04/25 00:50:09;;;;;;;10.05;6.82;;;8.80;99.90;;;;;;5097038;28;20044;-69
2022/04/25 00:52:35;;;;;;;12.32;7.63;;;8.70;99.90;;;;;;5096982;28;20051;-69
2022/04/25 00:55:03;;;;;;;10.77;7.03;;;8.90;99.90;;;;;;5097011;28;20051;-69
2022/04/25 00:57:31;;;;;;;12.82;6.88;;;8.70;99.90;;;;;;5096853;28;20087;-69
2022/04/25 00:59:58;;;;;;;11.23;6.82;;;8.50;99.90;;;;;;5097465;28;20436;-69
2022/04/25 01:02:26;;;;;;;9.80;6.90;;;8.60;99.90;;;;;;5096834;28;20050;-69
2022/04/25 01:04:53;;;;;;;10.25;6.70;;;8.70;99.90;;;;;;5097470;28;20076;-69
2022/04/25 01:07:19;;;;;;;13.13;7.22;;;8.90;99.90;;;;;;5096706;28;20044;-69
2022/04/25 01:09:45;;;;;;;12.50;7.10;;;8.60;99.90;;;;;;5078794;28;20043;-69
2022/04/25 01:12:11;;;;;;;12.57;6.38;;;8.90;99.90;;;;;;5078794;28;20047;-69
2022/04/25 01:14:36;;;;;;;13.00;7.65;;;8.60;99.90;;;;;;5097327;28;20082;-69
2022/04/25 01:17:03;;;;;;;10.35;6.63;;;8.50;99.90;;;;;;5096564;28;20040;-69
2022/04/25 01:19:29;;;;;;;9.73;6.25;;;8.60;99.90;;;;;;5061731;28;20073;-69
2022/04/25 01:22:14;;;;;;;10.48;6.88;;;9.00;99.90;;;;;;5096754;28;20051;-69
2022/04/25 01:27:26;;;;;;;10.63;7.00;;;8.60;99.90;;;;;;5078967;28;20048;-69
2022/04/25 01:29:53;;;;;;;9.93;5.93;;;9.10;99.90;;;;;;5096373;28;20392;-69
2022/04/25 01:32:21;;;;;;;10.30;6.30;;;8.70;99.90;;;;;;5096134;28;20193;-69
2022/04/25 01:34:48;;;;;;;11.48;5.93;;;8.60;99.90;;;;;;5096032;28;20044;-69
2022/04/25 01:37:18;;;;;;;11.05;5.95;;;8.70;99.90;;;;;;5096003;28;20166;-69
2022/04/25 01:39:46;;;;;;;8.90;6.32;;;8.70;99.90;;;;;;5096678;28;20134;-70
2022/04/25 01:42:12;;;;;;;6.38;5.30;;;8.60;99.90;;;;;;5096070;28;20131;-69
2022/04/25 01:44:39;;;;;;;10.70;6.15;;;8.70;99.90;;;;;;5096006;28;20040;-70
2022/04/25 01:47:06;;;;;;;10.07;5.97;;;8.80;99.90;;;;;;5096704;28;20095;-70
2022/04/25 01:49:36;;;;;;;9.68;5.43;;;8.60;99.90;;;;;;5078139;28;20105;-70
2022/04/25 01:52:23;;;;;;;10.15;5.55;;;8.60;99.90;;;;;;5077708;28;20109;-70
2022/04/25 01:54:49;;;;;;;10.80;5.68;;;8.60;99.90;;;;;;5077691;28;20042;-70
2022/04/25 01:57:15;;;;;;;9.18;5.80;;;8.50;99.90;;;;;;5096509;28;20040;-70
2022/04/25 01:59:40;;;;;;;10.02;5.75;;;8.60;99.90;;;;;;5096303;28;20065;-71
2022/04/25 02:02:06;;;;;;;10.98;6.32;;;9.00;99.90;;;;;;5095700;28;20164;-70
2022/04/25 02:04:32;;;;;;;10.20;6.50;;;8.50;99.90;;;;;;5096298;28;20036;-70
2022/04/25 02:06:58;;;;;;;9.82;6.32;;;8.50;99.90;;;;;;5095582;28;20122;-70
2022/04/25 02:09:24;;;;;;;10.75;6.30;;;8.40;99.90;;;;;;5095989;28;20380;-70
2022/04/25 02:11:50;;;;;;;11.90;6.32;;;8.50;99.90;;;;;;5077487;28;20092;-70
2022/04/25 02:14:15;;;;;;;12.77;6.93;;;8.50;99.90;;;;;;5095299;28;20040;-70
2022/04/25 02:16:41;;;;;;;10.40;6.68;;;8.40;99.90;;;;;;5095332;28;20097;-70
2022/04/25 02:19:07;;;;;;;12.02;6.47;;;8.40;99.90;;;;;;5095330;28;20055;-70
2022/04/25 02:21:33;;;;;;;12.90;7.13;;;8.30;99.90;;;;;;5078029;28;20043;-70
2022/04/25 02:23:59;;;;;;;9.63;6.20;;;8.40;99.90;;;;;;5095263;28;20503;-70
2022/04/25 02:26:25;;;;;;;11.30;6.93;;;8.50;99.90;;;;;;5077135;28;20066;-70
2022/04/25 02:28:54;;;;;;;9.63;5.55;;;8.40;99.90;;;;;;5077285;28;20472;-70
2022/04/25 02:31:21;;;;;;;9.75;5.20;;;8.30;99.90;;;;;;5095605;28;20048;-70
2022/04/25 02:33:47;;;;;;;8.48;5.38;;;8.50;99.90;;;;;;5073171;28;20092;-70
2022/04/25 02:36:13;;;;;;;10.13;6.07;;;8.40;99.90;;;;;;5074987;28;20091;-70
2022/04/25 02:38:40;;;;;;;10.75;5.68;;;8.40;99.90;;;;;;5073673;28;20044;-70
2022/04/25 02:41:08;;;;;;;9.30;5.65;;;8.30;99.90;;;;;;5074194;28;20041;-70
2022/04/25 02:43:38;;;;;;;10.00;5.93;;;8.30;99.90;;;;;;5073580;28;20052;-70
2022/04/25 02:46:06;;;;;;;8.88;6.57;;;8.40;99.90;;;;;;5074551;28;20131;-70
2022/04/25 02:48:32;;;;;;;9.07;6.40;;;8.90;99.90;;;;;;5074482;28;20091;-70
2022/04/25 02:50:58;;;;;;;8.20;6.05;;;8.40;99.90;;;;;;5075302;28;20040;-70
2022/04/25 02:53:24;;;;;;;10.10;6.47;;;9.00;99.90;;;;;;5073718;28;20547;-70
2022/04/25 02:55:54;;;;;;;11.63;6.85;;;8.80;99.90;;;;;;5073095;28;20044;-70
2022/04/25 02:58:20;;;;;;;9.68;5.65;;;8.30;99.90;;;;;;5074321;28;20048;-70
2022/04/25 03:00:47;;;;;;;8.88;6.20;;;8.30;99.90;;;;;;5074578;28;20380;-70
2022/04/25 03:03:14;;;;;;;8.18;5.93;;;8.30;99.90;;;;;;5075052;28;20380;-70
2022/04/25 03:05:45;;;;;;;10.88;6.15;;;8.40;99.90;;;;;;5074610;28;20052;-69
2022/04/25 03:08:11;;;;;;;10.07;6.32;;;8.30;99.90;;;;;;5072969;28;20076;-70
2022/04/25 03:10:38;;;;;;;9.55;6.50;;;8.30;99.90;;;;;;5074080;28;20060;-70
2022/04/25 03:13:07;;;;;;;10.35;6.35;;;8.20;99.90;;;;;;5074054;28;20087;-70
2022/04/25 03:15:34;;;;;;;11.38;6.90;;;8.30;99.90;;;;;;5073902;28;20534;-70
2022/04/25 03:18:01;;;;;;;9.68;5.88;;;8.40;99.90;;;;;;5073967;28;20048;-70
2022/04/25 03:20:28;;;;;;;12.48;6.22;;;8.20;99.90;;;;;;5072954;28;20524;-70
2022/04/25 03:22:55;;;;;;;8.18;5.53;;;8.30;99.90;;;;;;5073861;28;20040;-70
2022/04/25 03:25:21;;;;;;;9.45;6.20;;;8.20;99.90;;;;;;5073821;28;20052;-70
2022/04/25 03:27:47;;;;;;;9.00;5.20;;;8.20;99.90;;;;;;5074628;28;20055;-70
2022/04/25 03:30:12;;;;;;;9.32;5.68;;;8.30;99.90;;;;;;5072522;28;20396;-70
2022/04/25 03:32:45;;;;;;;9.18;6.00;;;8.40;99.90;;;;;;5077770;28;20063;-70
2022/04/25 03:35:12;;;;;;;9.80;5.13;;;8.20;99.90;;;;;;5093819;28;20039;-70
2022/04/25 03:37:39;;;;;;;10.48;6.35;;;8.30;99.90;;;;;;5093889;28;20047;-70
2022/04/25 03:40:05;;;;;;;8.82;5.25;;;8.60;99.90;;;;;;5075956;28;20052;-70
2022/04/25 03:42:31;;;;;;;7.43;5.25;;;8.20;99.90;;;;;;5094139;28;20040;-70
2022/04/25 03:44:57;;;;;;;8.20;4.97;;;8.30;99.90;;;;;;5094380;28;20047;-70
2022/04/25 03:47:23;;;;;;;9.45;5.10;;;8.30;99.90;;;;;;5075988;28;20044;-70
2022/04/25 03:49:49;;;;;;;10.18;5.55;;;8.20;99.90;;;;;;5076055;28;20048;-70
2022/04/25 03:52:15;;;;;;;9.07;5.55;;;8.20;99.90;;;;;;5075368;28;20043;-70
2022/04/25 03:57:25;;;;;;;11.30;5.70;;;8.20;99.90;;;;;;5093668;28;20135;-70
2022/04/25 03:59:50;;;;;;;9.35;5.68;;;8.20;99.90;;;;;;5075900;28;20078;-70
2022/04/25 04:02:16;;;;;;;7.95;5.75;;;8.20;99.90;;;;;;5093656;28;20086;-70
2022/04/25 04:04:42;;;;;;;8.77;5.45;;;8.50;99.90;;;;;;5094114;28;20044;-70
2022/04/25 04:07:08;;;;;;;10.55;6.10;;;8.20;99.90;;;;;;5093550;28;20539;-70
2022/04/25 04:09:46;;;;;;;8.55;6.40;;;8.90;99.90;;;;;;5094320;28;20051;-70
2022/04/25 04:12:12;;;;;;;11.70;6.32;;;8.40;99.90;;;;;;5093623;28;20075;-70
2022/04/25 04:14:40;;;;;;;9.88;6.07;;;8.20;99.90;;;;;;5093713;28;20036;-70
2022/04/25 04:17:08;;;;;;;9.95;6.18;;;8.30;99.90;;;;;;5093461;28;20048;-70
2022/04/25 04:19:38;;;;;;;9.25;6.18;;;8.40;99.90;;;;;;5093409;28;20058;-70
2022/04/25 04:22:05;;;;;;;9.77;6.40;;;9.00;99.90;;;;;;5093475;28;20130;-70
2022/04/25 04:24:32;;;;;;;8.15;5.63;;;8.20;99.90;;;;;;5093375;28;20044;-70
2022/04/25 04:27:02;;;;;;;10.70;6.07;;;8.20;99.90;;;;;;5058834;28;20063;-70
2022/04/25 04:29:35;;;;;;;10.75;6.45;;;8.30;99.90;;;;;;5093385;28;20051;-70
2022/04/25 04:32:07;;;;;;;10.30;5.93;;;8.80;99.90;;;;;;5094260;28;20083;-70
2022/04/25 04:34:35;;;;;;;9.35;5.47;;;8.30;99.90;;;;;;5093060;28;20052;-70
2022/04/25 04:37:01;;;;;;;9.80;5.90;;;8.40;99.90;;;;;;5093377;28;20054;-70
2022/04/25 04:39:27;;;;;;;10.05;6.20;;;8.30;99.90;;;;;;5075588;28;20372;-70
2022/04/25 04:41:54;;;;;;;8.57;5.45;;;8.30;99.90;;;;;;5093310;28;20040;-70
2022/04/25 04:44:19;;;;;;;8.07;5.13;;;8.30;99.90;;;;;;5093589;28;20072;-70
2022/04/25 04:46:45;;;;;;;9.32;5.30;;;8.20;99.90;;;;;;5093241;28;20048;-70
2022/04/25 04:49:11;;;;;;;9.55;5.45;;;8.20;99.90;;;;;;5094025;28;20036;-70
2022/04/25 04:51:37;;;;;;;7.18;5.18;;;8.40;99.90;;;;;;5093482;28;20046;-70
2022/04/25 04:54:03;;;;;;;9.20;5.85;;;8.20;99.90;;;;;;5093475;28;20131;-70
2022/04/25 04:56:32;;;;;;;8.27;5.00;;;8.30;99.90;;;;;;5093648;28;20153;-70
2022/04/25 04:59:02;;;;;;;8.40;5.35;;;8.50;99.90;;;;;;5075043;28;20052;-70
2022/04/25 05:01:28;;;;;;;10.45;5.30;;;8.10;99.90;;;;;;5093080;28;20044;-69
2022/04/25 05:03:58;;;;;;;9.52;5.20;;;8.30;99.90;;;;;;5075120;28;20055;-69
2022/04/25 05:06:27;;;;;;;8.88;5.20;;;8.30;99.90;;;;;;5097537;28;20040;-69
2022/04/25 05:08:54;;;;;;;7.32;5.13;;;8.20;99.90;;;;;;5079191;28;20104;-70
2022/04/25 05:11:20;;;;;;;8.77;4.80;;;8.30;99.90;;;;;;5096648;28;20126;-70
2022/04/25 05:13:46;;;;;;;7.80;4.85;;;8.30;99.90;;;;;;5079056;28;20059;-69
2022/04/25 05:16:11;;;;;;;7.43;4.15;;;8.70;99.90;;;;;;5096450;28;20383;-69
2022/04/25 05:18:37;;;;;;;6.93;5.05;;;8.30;99.90;;;;;;5096564;28;20399;-70
2022/04/25 05:21:04;;;;;;;8.20;5.30;;;8.30;99.90;;;;;;5078381;28;20040;-70
2022/04/25 05:23:31;;;;;;;6.15;4.55;;;8.30;99.90;;;;;;5079070;28;20375;-69
2022/04/25 05:25:58;;;;;;;7.03;5.18;;;8.30;99.90;;;;;;5096622;28;20445;-70
2022/04/25 05:28:25;;;;;;;8.05;5.00;;;8.30;99.90;;;;;;5096837;28;20052;-69
2022/04/25 05:30:51;;;;;;;8.18;5.07;;;8.30;99.90;;;;;;5078378;28;20052;-69
2022/04/25 05:33:18;;;;;;;7.63;5.05;;;8.30;99.90;;;;;;5096021;28;20060;-70
2022/04/25 05:35:44;;;;;;;8.00;4.78;;;8.30;99.90;;;;;;5095657;28;20496;-69
2022/04/25 05:38:11;;;;;;;7.50;4.63;;;8.30;99.90;;;;;;5096193;28;20201;-69
2022/04/25 05:40:41;;;;;;;9.02;5.20;;;8.50;99.90;;;;;;5096971;28;20052;-70
2022/04/25 05:43:07;;;;;;;9.10;5.15;;;8.30;99.90;;;;;;5077932;28;20043;-69
2022/04/25 05:45:34;;;;;;;8.40;4.88;;;8.40;99.90;;;;;;5096541;28;20039;-69
2022/04/25 05:48:00;;;;;;;10.32;5.63;;;8.30;99.90;;;;;;5095917;28;20058;-69
2022/04/25 05:53:12;;;;;;;7.68;4.85;;;8.40;99.90;;;;;;5095915;28;20114;-70
2022/04/25 05:55:38;;;;;;;8.85;5.00;;;8.30;99.90;;;;;;5077744;28;20044;-69
2022/04/25 05:58:06;;;;;;;8.73;5.13;;;8.30;99.90;;;;;;5077638;28;20051;-69
2022/04/25 06:00:32;;;;;;;7.75;4.35;;;8.30;99.90;;;;;;5095724;28;20055;-69
2022/04/25 06:03:00;;;;;;;11.27;5.30;;;8.30;99.90;;;;;;5077589;28;20036;-69
2022/04/25 06:05:25;;;;;;;9.80;4.95;;;8.30;99.90;;;;;;5095482;28;20054;-69
2022/04/25 06:07:52;;;;;;;7.40;4.78;;;8.40;99.90;;;;;;5095274;28;20081;-69
2022/04/25 06:10:19;;;;;;;7.68;4.53;;;8.30;99.90;;;;;;5095488;28;20128;-69
2022/04/25 06:12:48;;;;;;;8.57;4.80;;;8.20;99.90;;;;;;5060888;28;20048;-68
2022/04/25 06:15:16;;;;;;;8.70;5.15;;;8.30;99.90;;;;;;5095081;28;20044;-69
2022/04/25 06:17:42;;;;;;;7.57;5.32;;;8.20;99.90;;;;;;5095370;28;20048;-69
2022/04/25 06:20:09;;;;;;;7.68;4.60;;;8.20;99.90;;;;;;5078058;28;20048;-69
2022/04/25 06:22:36;;;;;;;7.05;5.20;;;8.30;99.90;;;;;;5095246;28;20048;-69
2022/04/25 06:25:03;;;;;;;7.40;5.10;;;8.40;99.90;;;;;;5077338;28;20098;-69
2022/04/25 06:27:29;;;;;;;8.15;5.38;;;8.30;99.90;;;;;;5095112;28;20048;-69
2022/04/25 06:29:56;;;;;;;12.05;5.70;;;8.30;99.90;;;;;;5077384;28;20177;-68
2022/04/25 06:32:23;;;;;;;8.40;5.40;;;8.30;99.90;;;;;;5095116;28;20385;-69
2022/04/25 06:34:48;;;;;;;8.35;4.85;;;8.30;99.90;;;;;;5054748;28;20130;-68
2022/04/25 06:37:15;;;;;;;9.73;6.05;;;8.30;99.90;;;;;;5054462;28;20052;-68
2022/04/25 06:39:41;;;;;;;9.05;5.38;;;8.30;99.90;;;;;;5054773;28;20084;-69
2022/04/25 06:42:08;;;;;;;9.80;6.07;;;8.40;99.90;;;;;;5037426;28;20056;-69
2022/04/25 06:44:34;;;;;;;9.73;5.45;;;8.20;99.90;;;;;;5053474;28;20191;-68
2022/04/25 06:47:00;;;;;;;10.55;5.57;;;8.30;99.90;;;;;;5054590;28;20080;-69
2022/04/25 06:49:27;;;;;;;9.48;5.70;;;8.30;99.90;;;;;;5053864;28;20077;-69
2022/04/25 06:51:59;;;;;;;8.60;6.30;;;8.20;99.90;;;;;;5053442;28;20619;-68
2022/04/25 06:54:30;;;;;;;9.88;6.53;;;8.20;99.90;;;;;;5054380;28;20044;-68
2022/04/25 06:56:58;;;;;;;7.00;5.32;;;8.20;99.90;;;;;;5054454;28;20095;-68
2022/04/25 06:59:23;;;;;;;9.70;6.10;;;8.40;99.90;;;;;;5054008;28;20067;-68
2022/04/25 07:01:50;;;;;;;11.23;6.38;;;8.20;99.90;;;;;;5054438;28;20174;-69
2022/04/25 07:04:17;;;;;;;9.75;5.50;;;8.20;99.90;;;;;;5036859;28;20041;-68
2022/04/25 07:06:44;;;;;;;9.15;6.60;;;8.40;99.90;;;;;;5037601;28;20045;-68
2022/04/25 07:09:14;;;;;;;11.65;6.93;;;8.20;99.90;;;;;;5053021;28;20077;-69
2022/04/25 07:11:44;;;;;;;11.32;6.70;;;8.20;99.90;;;;;;5054331;28;20083;-69
2022/04/25 07:14:15;;;;;;;10.38;6.60;;;8.20;99.90;;;;;;5053689;28;20084;-68
2022/04/25 07:16:45;;;;;;;10.45;6.28;;;8.20;99.90;;;;;;5053474;28;20044;-68
2022/04/25 07:19:16;;;;;;;12.45;6.65;;;8.20;99.90;;;;;;5053793;28;20516;-69
2022/04/25 07:29:55;;;;;;;6.97;4.95;;;8.30;99.90;;;;;;5054003;28;20049;-68
2022/04/25 07:32:20;;;;;;;8.18;5.13;;;8.30;99.90;;;;;;5053675;28;20077;-70
2022/04/25 07:34:47;;;;;;;7.65;5.35;;;8.50;99.90;;;;;;5093982;28;20177;-68
2022/04/25 07:37:15;;;;;;;7.50;4.60;;;8.30;99.90;;;;;;5093702;28;20508;-66
2022/04/25 07:39:40;;;;;;;10.57;5.55;;;8.40;99.90;;;;;;5094026;28;20150;-67
2022/04/25 07:42:06;;;;;;;7.18;5.50;;;8.50;99.90;;;;;;5093934;28;20048;-66
2022/04/25 07:44:32;;;;;;;7.80;4.63;;;8.40;99.90;;;;;;5077007;28;20040;-67
2022/04/25 07:46:59;;;;;;;11.82;5.28;;;8.40;99.90;;;;;;5094211;28;20086;-67
2022/04/25 07:49:25;;;;;;;10.95;4.75;;;8.40;99.90;;;;;;5094105;28;20480;-67
2022/04/25 07:51:51;;;;;;;9.68;5.43;;;8.40;99.90;;;;;;5093855;28;20043;-67
2022/04/25 07:54:19;;;;;;;7.65;4.30;;;8.40;99.90;;;;;;5075628;28;20555;-69
2022/04/25 07:56:45;;;;;;;8.93;4.82;;;8.60;99.90;;;;;;5093783;28;20044;-69
2022/04/25 07:59:11;;;;;;;7.60;5.03;;;8.30;99.90;;;;;;5094090;28;20101;-70
2022/04/25 08:01:38;;;;;;;6.53;3.78;;;8.50;99.90;;;;;;5093681;28;20130;-69
2022/04/25 08:04:03;;;;;;;5.63;3.53;;;8.50;99.90;;;;;;5076555;28;20138;-68
2022/04/25 08:06:29;;;;;;;8.05;3.80;;;8.40;99.90;;;;;;5075430;28;20559;-68
2022/04/25 08:08:56;;;;;;;4.47;2.83;;;8.40;99.90;;;;;;5076527;28;20036;-68
2022/04/25 08:11:23;;;;;;;6.68;2.90;;;8.40;99.90;;;;;;5093620;28;20048;-68
2022/04/25 08:19:20;;;;;;;6.53;3.53;;;8.80;99.90;;;;;;5093607;28;20139;-68
2022/04/25 08:21:46;;;;;;;5.25;3.30;;;8.50;99.90;;;;;;5094185;28;20044;-68
2022/04/25 08:24:13;;;;;;;4.72;2.83;;;8.50;99.90;;;;;;5059057;28;20463;-69
2022/04/25 08:26:39;;;;;;;6.35;2.58;;;8.60;99.90;;;;;;5093515;28;20127;-69
2022/04/25 08:29:05;;;;;;;8.38;3.90;;;8.60;99.90;;;;;;5075481;28;20048;-70
2022/04/25 08:31:35;;;;;;;3.92;2.28;;;9.00;99.90;;;;;;5094011;28;20050;-70
2022/04/25 08:34:03;;;;;;;4.70;2.70;;;8.70;99.90;;;;;;5093270;28;20056;-69
2022/04/25 08:36:29;;;;;;;4.70;2.35;;;8.70;99.90;;;;;;5058764;28;20147;-69
2022/04/25 08:38:55;;;;;;;4.90;2.70;;;8.70;99.90;;;;;;5075975;28;20471;-70
2022/04/25 08:41:27;;;;;;;5.35;2.80;;;8.90;99.90;;;;;;5097642;28;20044;-70
2022/04/25 08:43:55;;;;;;;5.82;3.60;;;9.00;99.90;;;;;;5097302;28;20048;-69
2022/04/25 08:46:22;;;;;;;6.50;3.50;;;8.90;99.90;;;;;;5079376;28;20112;-69
2022/04/25 08:48:49;;;;;;;4.13;3.30;;;8.80;99.90;;;;;;5062666;28;20052;-69
2022/04/25 08:51:16;;;;;;;7.65;3.22;;;9.00;99.90;;;;;;5097124;28;20059;-70
2022/04/25 08:53:45;;;;;;;4.85;3.38;;;9.00;99.90;;;;;;5097097;28;20185;-71
2022/04/25 08:56:12;;;;;;;5.43;3.10;;;9.30;99.90;;;;;;5097000;28;20047;-70
2022/04/25 08:58:41;;;;;;;4.18;3.10;;;9.10;99.90;;;;;;5097017;28;20040;-70
2022/04/25 09:01:10;;;;;;;4.85;2.85;;;9.10;99.90;;;;;;5097031;28;20048;-70
2022/04/25 09:03:36;;;;;;;6.00;3.42;;;9.20;99.90;;;;;;5097795;28;20090;-70
2022/04/25 09:06:03;;;;;;;5.10;3.15;;;9.70;99.90;;;;;;5097354;28;20044;-70
2022/04/25 09:08:29;;;;;;;9.30;4.57;;;9.40;99.90;;;;;;5097650;28;20043;-70
2022/04/25 09:13:43;;;;;;;4.43;3.30;;;9.70;99.90;;;;;;5079662;28;20064;-70
2022/04/25 09:16:12;;;;;;;4.38;2.90;;;9.90;99.90;;;;;;5096606;28;20089;-70
2022/04/25 09:18:38;;;;;;;4.53;3.30;;;9.80;99.90;;;;;;5097479;28;20056;-70
2022/04/25 09:21:05;;;;;;;5.55;3.42;;;9.90;99.90;;;;;;5096595;28;20052;-70
2022/04/25 09:23:31;;;;;;;4.75;2.65;;;9.90;99.90;;;;;;5096810;28;20450;-69
2022/04/25 09:26:20;;;;;;;5.90;3.42;;;9.90;99.90;;;;;;5096477;28;20044;-69
2022/04/25 09:28:54;;;;;;;6.45;3.33;;;10.00;99.90;;;;;;5078517;28;20545;-68
2022/04/25 09:31:25;;;;;;;5.40;2.80;;;10.10;99.90;;;;;;5077464;28;20051;-69
2022/04/25 09:33:51;;;;;;;6.68;3.58;;;10.20;99.90;;;;;;5077697;28;20092;-69
2022/04/25 09:36:17;;;;;;;3.33;2.90;;;10.20;99.90;;;;;;5095579;28;20048;-69
2022/04/25 09:38:44;;;;;;;7.50;3.42;;;10.30;99.90;;;;;;5095467;28;20121;-69
2022/04/25 09:41:14;;;;;;;5.43;3.35;;;10.30;99.90;;;;;;5077496;28;20036;-69
2022/04/25 09:43:42;;;;;;;5.30;3.20;;;10.30;99.90;;;;;;5078092;28;20071;-70
2022/04/25 09:46:13;;;;;;;6.25;2.88;;;10.20;99.90;;;;;;5095025;28;20044;-68
2022/04/25 09:48:43;;;;;;;8.75;3.65;;;10.40;99.90;;;;;;5095351;28;20069;-78
2022/04/25 09:51:16;;;;;;;6.10;3.63;;;10.20;99.90;;;;;;5094939;28;20058;-70
2022/04/25 09:53:52;;;;;;;5.30;2.78;;;10.30;99.90;;;;;;5096320;28;20421;-70
2022/04/25 09:56:38;;;;;;;7.43;3.60;;;10.30;99.90;;;;;;5077525;28;20390;-70
2022/04/25 09:59:07;;;;;;;7.45;3.28;;;10.40;99.90;;;;;;5077031;28;20157;-69
2022/04/25 10:01:39;;;;;;;6.13;4.00;;;10.40;99.90;;;;;;5095006;28;20055;-69
2022/04/25 10:04:06;;;;;;;4.63;3.33;;;10.50;99.90;;;;;;5076617;28;20040;-69
2022/04/25 10:06:35;;;;;;;5.85;4.10;;;10.50;99.90;;;;;;5095948;28;20044;-69
2022/04/25 10:09:03;;;;;;;3.95;3.42;;;10.60;99.90;;;;;;5076990;28;20040;-69
2022/04/25 10:11:40;;;;;;;5.10;3.42;;;10.70;99.90;;;;;;5094834;28;20044;-70
2022/04/25 10:14:07;;;;;;;5.90;3.45;;;10.80;99.90;;;;;;5077691;28;20055;-68
2022/04/25 10:16:36;;;;;;;5.90;3.47;;;10.90;99.90;;;;;;5094650;28;20062;-68
2022/04/25 10:19:03;;;;;;;5.47;3.00;;;11.00;99.90;;;;;;5094630;28;20051;-68
2022/04/25 10:21:30;;;;;;;6.13;3.42;;;11.10;99.90;;;;;;5094283;28;20040;-68
2022/04/25 10:23:57;;;;;;;6.10;2.90;;;11.30;99.90;;;;;;5094818;28;20071;-68
2022/04/25 10:26:27;;;;;;;4.43;3.20;;;11.20;99.90;;;;;;5060429;28;20036;-68
2022/04/25 10:28:59;;;;;;;3.97;2.88;;;11.20;99.90;;;;;;5094405;28;20044;-68
2022/04/25 10:31:28;;;;;;;4.50;3.15;;;11.20;99.90;;;;;;5076191;28;20088;-69
2022/04/25 10:33:59;;;;;;;5.25;3.50;;;11.20;99.90;;;;;;5094406;28;20112;-69
2022/04/25 10:36:37;;;;;;;4.95;3.50;;;11.30;99.90;;;;;;5093809;28;20186;-68
2022/04/25 10:39:15;;;;;;;4.32;3.50;;;11.40;99.90;;;;;;5094329;28;20081;-68
2022/04/25 10:44:46;;;;;;;9.85;4.32;;;11.70;99.90;;;;;;5076283;28;20059;-68
2022/04/25 10:47:22;;;;;;;6.47;3.17;;;11.90;99.90;;;;;;5094108;28;20093;-69
2022/04/25 10:49:49;;;;;;;5.47;3.35;;;11.90;99.90;;;;;;5075945;28;20048;-68
2022/04/25 10:55:33;;;;;;;4.38;2.78;;;12.00;99.90;;;;;;5093472;28;20044;-68
2022/04/25 10:58:05;;;;;;;4.20;2.80;;;12.00;99.90;;;;;;5094870;28;20055;-69
2022/04/25 11:00:39;;;;;;;4.60;3.17;;;12.10;99.90;;;;;;5093810;28;20044;-68
2022/04/25 11:03:17;;;;;;;6.97;3.50;;;12.10;99.90;;;;;;5074961;28;20044;-68
2022/04/25 11:05:47;;;;;;;5.00;3.03;;;12.10;99.90;;;;;;5093483;28;20040;-68
2022/04/25 11:08:18;;;;;;;5.18;3.00;;;12.20;99.90;;;;;;5093407;28;20048;-68
2022/04/25 11:10:45;;;;;;;6.25;3.28;;;12.20;99.90;;;;;;5075982;28;20472;-68
2022/04/25 11:13:12;;;;;;;7.68;3.65;;;12.30;99.90;;;;;;5075622;28;20048;-68
2022/04/25 11:15:46;;;;;;;6.05;3.38;;;12.30;99.90;;;;;;5093907;28;20055;-69
2022/04/25 11:18:38;;;;;;;6.35;3.13;;;12.30;99.90;;;;;;5059298;28;20101;-68
2022/04/25 11:21:08;;;;;;;5.57;3.78;;;12.40;99.90;;;;;;5093201;28;20097;-68
2022/04/25 11:23:43;;;;;;;6.20;3.92;;;12.40;99.90;;;;;;5093840;28;20490;-69
2022/04/25 11:26:30;;;;;;;6.13;3.30;;;12.50;99.90;;;;;;5093870;28;20047;-68
2022/04/25 11:28:58;;;;;;;7.03;3.67;;;12.50;99.90;;;;;;5092945;28;20052;-68
2022/04/25 11:31:27;;;;;;;5.35;3.65;;;12.50;99.90;;;;;;5092785;28;20557;-68
2022/04/25 11:33:55;;;;;;;5.47;3.65;;;12.50;99.90;;;;;;5093067;28;20062;-68
2022/04/25 11:36:22;;;;;;;7.75;4.50;;;12.50;99.90;;;;;;5093362;28;20044;-68
2022/04/25 11:41:36;;;;;;;4.88;3.40;;;12.50;99.90;;;;;;5093241;28;20055;-69
2022/04/25 11:44:02;;;;;;;5.88;3.50;;;12.60;99.90;;;;;;5093950;28;20044;-68
2022/04/25 11:46:31;;;;;;;5.32;3.55;;;12.60;99.90;;;;;;5074657;28;20044;-68
2022/04/25 11:48:57;;;;;;;6.43;3.67;;;12.70;99.90;;;;;;5093530;28;20051;-68
2022/04/25 11:51:26;;;;;;;5.57;3.45;;;12.80;99.90;;;;;;5092784;28;20051;-69
2022/04/25 11:53:53;;;;;;;5.10;3.70;;;12.90;99.90;;;;;;5092729;28;20115;-68
2022/04/25 11:56:23;;;;;;;6.88;3.72;;;13.00;99.90;;;;;;5092977;28;20396;-68
2022/04/25 11:58:49;;;;;;;5.65;3.33;;;13.00;99.90;;;;;;5074974;28;20062;-68
2022/04/25 12:01:32;;;;;;;6.15;3.42;;;13.10;99.90;;;;;;5093257;28;20047;-68
2022/04/25 12:04:17;;;;;;;6.05;3.75;;;13.10;99.90;;;;;;5094022;28;20465;-68
2022/04/25 12:07:06;;;;;;;5.75;3.42;;;13.20;99.90;;;;;;5093545;28;20481;-68
2022/04/25 12:15:38;;;;;;;4.53;3.17;;;13.40;99.90;;;;;;5098241;28;20048;-69
2022/04/25 12:18:23;;;;;;;6.40;3.45;;;13.40;99.90;;;;;;5098092;28;20499;-69
2022/04/25 12:20:50;;;;;;;4.45;3.70;;;13.40;99.90;;;;;;5097632;28;20074;-68
2022/04/25 12:23:23;;;;;;;6.53;3.75;;;13.40;99.90;;;;;;5097489;28;20047;-69
2022/04/25 12:25:50;;;;;;;5.53;3.15;;;13.40;99.90;;;;;;5079259;28;20040;-68
2022/04/25 12:28:15;;;;;;;8.93;3.47;;;13.30;99.90;;;;;;5079430;28;20047;-71
2022/04/25 12:30:50;;;;;;;5.70;3.58;;;13.30;99.90;;;;;;5097434;28;20044;-70
2022/04/25 12:33:17;;;;;;;7.05;3.80;;;13.30;99.90;;;;;;5078967;28;20139;-70
2022/04/25 12:35:44;;;;;;;5.65;3.35;;;13.20;99.90;;;;;;5097925;28;20075;-70
2022/04/25 12:38:31;;;;;;;7.15;3.40;;;13.20;99.90;;;;;;5098097;28;20077;-69
2022/04/25 12:40:57;;;;;;;5.55;3.63;;;13.10;99.90;;;;;;5097327;28;20054;-69
2022/04/25 12:43:37;;;;;;;4.97;3.28;;;13.00;99.90;;;;;;5097165;28;20105;-69
2022/04/25 12:46:06;;;;;;;7.78;3.90;;;12.90;99.90;;;;;;5097905;28;20068;-69
2022/04/25 12:49:08;;;;;;;6.88;3.80;;;12.90;99.90;;;;;;5062284;28;20051;-69
2022/04/25 12:51:34;;;;;;;7.53;3.35;;;12.90;99.90;;;;;;5079309;28;20052;-69
2022/04/25 12:54:02;;;;;;;6.55;3.47;;;12.80;99.90;;;;;;5096977;28;20048;-70
2022/04/25 12:56:30;;;;;;;5.60;4.05;;;12.80;99.90;;;;;;5096840;28;20051;-70
2022/04/25 12:58:56;;;;;;;7.22;3.85;;;12.70;99.90;;;;;;5096816;28;20044;-68
2022/04/25 13:01:36;;;;;;;4.40;3.60;;;12.70;99.90;;;;;;5096824;28;20127;-69
2022/04/25 13:04:13;;;;;;;6.30;4.00;;;12.60;99.90;;;;;;5079737;28;20426;-69
2022/04/25 13:06:43;;;;;;;6.88;3.70;;;12.60;99.90;;;;;;5096802;28;20067;-69
2022/04/25 13:09:10;;;;;;;6.80;4.18;;;12.60;99.90;;;;;;5096662;28;20499;-69
2022/04/25 13:11:37;;;;;;;7.13;4.38;;;12.50;99.90;;;;;;5079514;28;20364;-69
2022/04/25 13:14:03;;;;;;;5.18;4.38;;;12.40;99.90;;;;;;5096586;28;20080;-68
2022/04/25 13:16:29;;;;;;;7.00;4.20;;;12.40;99.90;;;;;;5096727;28;20079;-69
2022/04/25 13:18:55;;;;;;;7.10;4.43;;;12.40;99.90;;;;;;5078182;28;20127;-68
2022/04/25 13:21:21;;;;;;;6.18;4.13;;;12.40;99.90;;;;;;5096114;28;20083;-70
2022/04/25 13:23:49;;;;;;;6.18;4.10;;;12.30;99.90;;;;;;5078330;28;20051;-69
2022/04/25 13:26:16;;;;;;;4.22;3.50;;;12.30;99.90;;;;;;5095308;28;20411;-69
2022/04/25 13:28:41;;;;;;;5.30;3.95;;;12.30;99.90;;;;;;5096263;28;20044;-69
2022/04/25 13:31:07;;;;;;;8.00;4.55;;;12.30;99.90;;;;;;5096238;28;20051;-70
2022/04/25 13:33:33;;;;;;;10.85;4.45;;;12.30;99.90;;;;;;5074743;28;20052;-69
2022/04/25 13:35:58;;;;;;;5.43;4.28;;;12.30;99.90;;;;;;5075795;28;20048;-69